createdAt,value
2018-06-16T00:01:07.977Z,13.80
2018-06-16T00:03:36.428Z,13.60
2018-06-16T00:06:04.943Z,13.20
2018-06-16T00:08:33.411Z,13.27
2018-06-16T00:11:01.872Z,13.20
2018-06-16T00:13:30.420Z,14.73
2018-06-16T00:15:58.894Z,12.40
2018-06-16T00:18:27.426Z,13.83
2018-06-16T00:20:55.888Z,12.97
2018-06-16T00:23:24.358Z,12.93
2018-06-16T00:25:52.852Z,12.90
2018-06-16T00:28:21.322Z,13.63
2018-06-16T00:30:49.818Z,13.00
2018-06-16T00:33:19.258Z,13.93
2018-06-16T00:35:47.727Z,15.10
2018-06-16T00:38:16.207Z,15.77
2018-06-16T00:40:44.705Z,15.00
2018-06-16T00:43:13.182Z,13.80
2018-06-16T00:45:41.653Z,14.63
2018-06-16T00:48:10.112Z,13.35
2018-06-16T00:50:38.561Z,14.80
2018-06-16T00:53:07.059Z,14.03
2018-06-16T00:55:35.645Z,13.83
2018-06-16T00:58:04.284Z,14.57
2018-06-16T01:00:32.834Z,14.57
2018-06-16T01:03:01.412Z,14.40
2018-06-16T01:05:29.904Z,15.30
2018-06-16T01:07:58.344Z,15.07
2018-06-16T01:10:26.810Z,14.73
2018-06-16T01:12:55.269Z,14.00
2018-06-16T01:15:23.756Z,16.47
2018-06-16T01:17:52.260Z,15.07
2018-06-16T01:20:20.931Z,15.80
2018-06-16T01:22:49.366Z,14.57
2018-06-16T01:25:17.795Z,16.60
2018-06-16T01:27:46.310Z,17.00
2018-06-16T01:30:14.771Z,16.27
2018-06-16T01:32:43.235Z,16.87
2018-06-16T01:35:11.718Z,15.03
2018-06-16T01:37:40.267Z,15.60
2018-06-16T01:40:08.778Z,17.23
2018-06-16T01:42:37.256Z,17.20
2018-06-16T01:45:05.759Z,16.07
2018-06-16T01:47:34.222Z,16.65
2018-06-16T01:50:02.727Z,17.80
2018-06-16T01:52:31.234Z,16.80
2018-06-16T01:54:59.867Z,16.95
2018-06-16T01:57:28.460Z,17.60
2018-06-16T01:59:56.950Z,20.63
2018-06-16T02:02:25.427Z,18.77
2018-06-16T02:04:53.922Z,18.87
2018-06-16T02:07:22.447Z,17.92
2018-06-16T02:09:50.995Z,17.70
2018-06-16T02:12:19.490Z,17.52
2018-06-16T02:14:48.018Z,16.60
2018-06-16T02:17:16.500Z,17.95
2018-06-16T02:19:44.988Z,18.15
2018-06-16T02:22:13.512Z,18.30
2018-06-16T02:24:42.014Z,15.88
2018-06-16T02:27:10.504Z,17.40
2018-06-16T02:29:38.978Z,17.55
2018-06-16T02:32:07.490Z,16.90
2018-06-16T02:34:36.022Z,15.80
2018-06-16T02:37:04.580Z,15.70
2018-06-16T02:39:33.047Z,15.38
2018-06-16T02:42:01.591Z,14.23
2018-06-16T02:44:30.033Z,13.93
2018-06-16T02:46:59.055Z,14.70
2018-06-16T02:49:27.530Z,14.70
2018-06-16T02:51:55.743Z,15.72
2018-06-16T02:54:24.242Z,16.20
2018-06-16T02:56:52.799Z,15.38
2018-06-16T02:59:21.319Z,17.27
2018-06-16T03:01:49.810Z,15.83
2018-06-16T03:04:18.319Z,17.32
2018-06-16T03:06:46.868Z,17.12
2018-06-16T03:09:15.354Z,16.70
2018-06-16T03:11:43.836Z,17.15
2018-06-16T03:14:12.424Z,15.55
2018-06-16T03:16:40.980Z,16.55
2018-06-16T03:19:09.845Z,17.35
2018-06-16T03:21:38.341Z,15.20
2018-06-16T03:24:06.822Z,15.30
2018-06-16T03:26:35.644Z,16.62
2018-06-16T03:29:04.172Z,14.55
2018-06-16T03:31:32.775Z,16.02
2018-06-16T03:34:01.283Z,14.93
2018-06-16T03:36:29.759Z,18.05
2018-06-16T03:38:58.266Z,15.55
2018-06-16T03:41:26.778Z,16.87
2018-06-16T03:43:55.241Z,16.05
2018-06-16T03:46:23.757Z,16.77
2018-06-16T03:48:52.204Z,15.68
2018-06-16T03:51:20.700Z,16.17
2018-06-16T03:53:49.210Z,14.85
2018-06-16T03:56:17.784Z,13.95
2018-06-16T03:58:46.250Z,16.00
2018-06-16T04:01:14.730Z,17.60
2018-06-16T04:03:43.231Z,15.53
2018-06-16T04:06:11.772Z,15.48
2018-06-16T04:08:40.383Z,15.35
2018-06-16T04:11:08.865Z,15.90
2018-06-16T04:13:37.337Z,14.30
2018-06-16T04:16:06.085Z,15.05
2018-06-16T04:18:34.583Z,14.47
2018-06-16T04:21:03.052Z,12.95
2018-06-16T04:23:31.562Z,15.03
2018-06-16T04:26:00.111Z,16.15
2018-06-16T04:28:28.639Z,16.25
2018-06-16T04:30:57.199Z,14.03
2018-06-16T04:33:25.657Z,14.85
2018-06-16T04:35:54.302Z,16.15
2018-06-16T04:38:23.617Z,15.70
2018-06-16T04:40:52.109Z,16.02
2018-06-16T04:43:20.642Z,15.70
2018-06-16T04:45:49.251Z,15.58
2018-06-16T04:48:17.800Z,15.23
2018-06-16T04:50:46.299Z,16.15
2018-06-16T04:53:14.785Z,15.80
2018-06-16T04:55:43.367Z,15.80
2018-06-16T04:58:11.998Z,16.65
2018-06-16T05:00:44.037Z,15.30
2018-06-16T05:03:12.595Z,16.00
2018-06-16T05:05:41.102Z,15.47
2018-06-16T05:08:09.644Z,14.37
2018-06-16T05:10:38.139Z,15.17
2018-06-16T05:13:06.707Z,15.28
2018-06-16T05:15:35.455Z,15.47
2018-06-16T05:18:03.970Z,15.50
2018-06-16T05:20:32.493Z,16.70
2018-06-16T05:23:01.067Z,13.67
2018-06-16T05:25:29.666Z,14.70
2018-06-16T05:27:58.143Z,13.80
2018-06-16T05:30:26.591Z,15.80
2018-06-16T05:32:55.071Z,15.53
2018-06-16T05:35:23.795Z,14.90
2018-06-16T05:37:52.429Z,14.47
2018-06-16T05:40:20.898Z,13.90
2018-06-16T05:42:49.371Z,14.70
2018-06-16T05:45:17.858Z,15.50
2018-06-16T05:47:46.340Z,15.83
2018-06-16T05:50:14.828Z,15.40
2018-06-16T05:52:43.320Z,14.50
2018-06-16T05:55:11.851Z,15.00
2018-06-16T05:57:40.321Z,13.63
2018-06-16T06:00:08.905Z,14.77
2018-06-16T06:02:37.383Z,13.33
2018-06-16T06:05:06.112Z,13.27
2018-06-16T06:07:34.718Z,13.20
2018-06-16T06:10:03.418Z,12.37
2018-06-16T06:12:32.012Z,12.90
2018-06-16T06:15:00.605Z,12.70
2018-06-16T06:17:29.198Z,12.33
2018-06-16T06:19:57.784Z,11.70
2018-06-16T06:22:26.298Z,12.00
2018-06-16T06:24:55.284Z,11.10
2018-06-16T06:27:23.777Z,10.23
2018-06-16T06:29:52.326Z,9.37
2018-06-16T06:32:20.829Z,10.00
2018-06-16T06:34:49.336Z,8.77
2018-06-16T06:37:17.836Z,7.60
2018-06-16T06:39:46.318Z,8.53
2018-06-16T06:42:14.792Z,7.63
2018-06-16T06:44:43.276Z,8.77
2018-06-16T06:47:11.849Z,7.67
2018-06-16T06:49:40.316Z,6.73
2018-06-16T06:52:08.816Z,7.13
2018-06-16T06:54:37.277Z,6.13
2018-06-16T06:57:05.910Z,6.00
2018-06-16T06:59:34.428Z,6.87
2018-06-16T07:02:02.986Z,5.73
2018-06-16T07:04:31.460Z,5.60
2018-06-16T07:07:00.190Z,5.30
2018-06-16T07:09:28.804Z,5.23
2018-06-16T07:11:57.270Z,5.03
2018-06-16T07:14:25.748Z,4.50
2018-06-16T07:16:54.223Z,3.60
2018-06-16T07:19:22.816Z,4.50
2018-06-16T07:21:51.307Z,4.33
2018-06-16T07:24:19.771Z,4.33
2018-06-16T07:26:48.343Z,4.37
2018-06-16T07:29:16.845Z,4.37
2018-06-16T07:31:45.284Z,3.90
2018-06-16T07:34:13.741Z,3.63
2018-06-16T07:36:41.872Z,4.40
2018-06-16T07:39:11.036Z,2.93
2018-06-16T07:41:39.780Z,3.10
2018-06-16T07:44:08.367Z,3.47
2018-06-16T07:46:36.822Z,3.40
2018-06-16T07:49:05.333Z,3.93
2018-06-16T07:51:33.803Z,3.60
2018-06-16T07:54:02.324Z,3.30
2018-06-16T07:56:30.860Z,3.40
2018-06-16T07:58:59.421Z,3.27
2018-06-16T08:01:27.915Z,3.83
2018-06-16T08:03:56.506Z,3.50
2018-06-16T08:06:25.334Z,3.40
2018-06-16T08:08:53.875Z,2.77
2018-06-16T08:11:22.357Z,2.80
2018-06-16T08:13:50.855Z,2.70
2018-06-16T08:16:19.359Z,3.30
2018-06-16T08:18:47.955Z,3.00
2018-06-16T08:21:16.490Z,2.90
2018-06-16T08:23:44.990Z,3.47
2018-06-16T08:26:13.553Z,2.93
2018-06-16T08:28:42.067Z,2.70
2018-06-16T08:31:10.719Z,3.17
2018-06-16T08:33:39.176Z,2.83
2018-06-16T08:36:07.958Z,3.17
2018-06-16T08:38:36.427Z,2.80
2018-06-16T08:41:05.007Z,2.90
2018-06-16T08:43:33.454Z,2.53
2018-06-16T08:46:01.932Z,2.87
2018-06-16T08:48:30.458Z,3.00
2018-06-16T08:50:58.951Z,3.47
2018-06-16T08:53:27.433Z,3.07
2018-06-16T08:55:55.995Z,2.83
2018-06-16T08:58:24.617Z,2.60
2018-06-16T09:00:53.162Z,3.20
2018-06-16T09:03:21.699Z,2.20
2018-06-16T09:05:50.293Z,2.60
2018-06-16T09:08:18.833Z,2.93
2018-06-16T09:10:47.324Z,3.47
2018-06-16T09:13:15.865Z,3.10
2018-06-16T09:15:44.567Z,2.60
2018-06-16T09:18:13.087Z,2.70
2018-06-16T09:20:41.561Z,3.00
2018-06-16T09:23:10.092Z,2.47
2018-06-16T09:25:38.575Z,3.50
2018-06-16T09:28:07.197Z,2.73
2018-06-16T09:30:35.635Z,2.13
2018-06-16T09:33:04.164Z,3.10
2018-06-16T09:35:32.736Z,2.87
2018-06-16T09:38:01.249Z,2.70
2018-06-16T09:40:29.763Z,2.87
2018-06-16T09:42:58.296Z,2.37
2018-06-16T09:45:26.463Z,2.60
2018-06-16T09:47:55.007Z,2.47
2018-06-16T09:50:23.630Z,3.10
2018-06-16T09:52:52.286Z,2.20
2018-06-16T09:55:20.780Z,2.43
2018-06-16T09:57:49.323Z,3.03
2018-06-16T10:00:24.115Z,2.30
2018-06-16T10:02:53.127Z,2.40
2018-06-16T10:05:21.641Z,2.73
2018-06-16T10:07:50.163Z,2.70
2018-06-16T10:10:18.656Z,2.77
2018-06-16T10:12:47.165Z,2.10
2018-06-16T10:15:15.619Z,2.23
2018-06-16T10:17:44.204Z,2.27
2018-06-16T10:20:12.646Z,3.47
2018-06-16T10:22:41.180Z,2.30
2018-06-16T10:25:09.765Z,2.60
2018-06-16T10:27:38.330Z,3.10
2018-06-16T10:30:13.266Z,3.20
2018-06-16T10:32:41.759Z,2.97
2018-06-16T10:35:10.296Z,2.70
2018-06-16T10:37:38.994Z,2.27
2018-06-16T10:40:07.111Z,2.90
2018-06-16T10:42:35.588Z,2.40
2018-06-16T10:45:04.287Z,2.20
2018-06-16T10:47:32.767Z,2.33
2018-06-16T10:50:00.898Z,2.70
2018-06-16T10:52:29.378Z,2.33
2018-06-16T10:54:57.881Z,2.40
2018-06-16T10:57:26.376Z,2.40
2018-06-16T10:59:54.951Z,2.40
2018-06-16T11:02:23.404Z,2.40
2018-06-16T11:04:51.924Z,1.93
2018-06-16T11:07:20.418Z,2.30
2018-06-16T11:09:48.950Z,2.70
2018-06-16T11:12:17.444Z,3.00
2018-06-16T11:14:46.255Z,2.83
2018-06-16T11:17:14.767Z,2.50
2018-06-16T11:19:43.306Z,2.63
2018-06-16T11:22:11.769Z,2.30
2018-06-16T11:24:40.274Z,2.10
2018-06-16T11:27:08.735Z,2.23
2018-06-16T11:29:37.230Z,1.93
2018-06-16T11:32:06.014Z,2.70
2018-06-16T11:34:34.552Z,2.10
2018-06-16T11:37:03.144Z,2.70
2018-06-16T11:39:31.639Z,2.13
2018-06-16T11:42:00.127Z,2.43
2018-06-16T11:44:28.644Z,2.53
2018-06-16T11:46:57.614Z,2.77
2018-06-16T11:49:26.089Z,2.73
2018-06-16T11:51:54.611Z,2.87
2018-06-16T11:54:23.212Z,2.53
2018-06-16T11:56:51.857Z,2.50
2018-06-16T11:59:20.327Z,2.60
2018-06-16T12:01:48.866Z,3.40
2018-06-16T12:04:17.385Z,2.33
2018-06-16T12:06:45.854Z,3.30
2018-06-16T12:09:14.297Z,2.73
2018-06-16T12:11:42.756Z,2.43
2018-06-16T12:14:11.310Z,2.50
2018-06-16T12:16:39.774Z,2.80
2018-06-16T12:19:08.773Z,3.70
2018-06-16T12:21:37.620Z,3.00
2018-06-16T12:24:06.421Z,2.57
2018-06-16T12:26:35.070Z,2.30
2018-06-16T12:29:03.733Z,2.70
2018-06-16T12:31:32.219Z,2.27
2018-06-16T12:34:00.847Z,2.30
2018-06-16T12:36:29.330Z,2.50
2018-06-16T12:38:57.928Z,2.30
2018-06-16T12:41:26.516Z,2.57
2018-06-16T12:43:55.051Z,2.90
2018-06-16T12:46:23.519Z,2.67
2018-06-16T12:48:51.985Z,2.40
2018-06-16T12:51:20.486Z,2.57
2018-06-16T12:53:48.975Z,2.90
2018-06-16T12:56:17.514Z,2.60
2018-06-16T12:58:45.986Z,2.57
2018-06-16T13:01:14.564Z,2.80
2018-06-16T13:03:43.034Z,3.07
2018-06-16T13:06:11.646Z,2.77
2018-06-16T13:08:40.136Z,2.77
2018-06-16T13:11:08.648Z,2.40
2018-06-16T13:13:37.274Z,2.37
2018-06-16T13:16:06.098Z,2.80
2018-06-16T13:18:34.757Z,2.53
2018-06-16T13:21:03.285Z,2.60
2018-06-16T13:23:32.275Z,3.00
2018-06-16T13:26:00.827Z,2.70
2018-06-16T13:28:29.508Z,3.07
2018-06-16T13:30:58.091Z,2.50
2018-06-16T13:33:26.599Z,2.23
2018-06-16T13:35:55.118Z,2.33
2018-06-16T13:38:23.807Z,2.90
2018-06-16T13:40:52.319Z,2.50
2018-06-16T13:43:20.812Z,2.53
2018-06-16T13:45:49.302Z,4.23
2018-06-16T13:48:17.778Z,3.17
2018-06-16T13:50:46.323Z,3.67
2018-06-16T13:53:14.766Z,3.07
2018-06-16T13:55:43.298Z,4.30
2018-06-16T13:58:11.793Z,2.97
2018-06-16T14:00:40.447Z,2.87
2018-06-16T14:03:09.034Z,3.17
2018-06-16T14:05:37.516Z,2.80
2018-06-16T14:08:06.534Z,3.00
2018-06-16T14:10:35.431Z,2.77
2018-06-16T14:13:03.941Z,2.70
2018-06-16T14:15:32.487Z,3.07
2018-06-16T14:18:00.979Z,2.83
2018-06-16T14:20:29.462Z,3.00
2018-06-16T14:22:57.910Z,2.60
2018-06-16T14:25:26.410Z,3.00
2018-06-16T14:27:54.922Z,2.63
2018-06-16T14:30:23.379Z,2.80
2018-06-16T14:32:51.862Z,3.20
2018-06-16T14:35:20.360Z,3.13
2018-06-16T14:37:49.027Z,2.40
2018-06-16T14:40:17.514Z,3.13
2018-06-16T14:42:45.999Z,3.00
2018-06-16T14:45:14.700Z,3.07
2018-06-16T14:47:43.287Z,3.43
2018-06-16T14:50:11.979Z,3.20
2018-06-16T14:52:40.511Z,3.00
2018-06-16T14:55:09.010Z,3.03
2018-06-16T14:57:37.534Z,2.30
2018-06-16T15:00:06.245Z,3.00
2018-06-16T15:02:34.801Z,3.00
2018-06-16T15:05:03.406Z,2.60
2018-06-16T15:07:31.789Z,2.47
2018-06-16T15:10:00.381Z,2.57
2018-06-16T15:12:28.831Z,2.50
2018-06-16T15:14:57.509Z,3.00
2018-06-16T15:17:26.079Z,2.43
2018-06-16T15:19:54.635Z,2.50
2018-06-16T15:22:23.109Z,2.13
2018-06-16T15:24:51.602Z,2.20
2018-06-16T15:27:20.114Z,2.13
2018-06-16T15:29:48.677Z,2.40
2018-06-16T15:32:17.168Z,2.17
2018-06-16T15:34:45.654Z,2.37
2018-06-16T15:37:14.159Z,2.30
2018-06-16T15:39:42.667Z,2.47
2018-06-16T15:42:11.200Z,2.77
2018-06-16T15:44:39.695Z,4.00
2018-06-16T15:47:08.202Z,2.33
2018-06-16T15:49:36.362Z,3.37
2018-06-16T15:52:04.860Z,2.83
2018-06-16T15:54:33.324Z,2.90
2018-06-16T15:57:01.910Z,2.50
2018-06-16T15:59:30.475Z,2.63
2018-06-16T16:01:58.967Z,2.90
2018-06-16T16:04:27.415Z,2.87
2018-06-16T16:06:55.901Z,3.00
2018-06-16T16:09:24.375Z,4.17
2018-06-16T16:11:52.863Z,2.80
2018-06-16T16:14:21.361Z,3.17
2018-06-16T16:16:49.924Z,2.87
2018-06-16T16:19:18.408Z,2.90
2018-06-16T16:36:51.882Z,2.93
2018-06-16T16:39:20.340Z,3.03
2018-06-16T16:41:48.796Z,3.10
2018-06-16T16:44:17.976Z,2.70
2018-06-16T16:46:46.463Z,3.17
2018-06-16T16:49:14.963Z,3.43
2018-06-16T16:51:43.472Z,3.47
2018-06-16T16:54:11.978Z,3.37
2018-06-16T16:56:40.584Z,3.60
2018-06-16T16:59:09.116Z,2.80
2018-06-16T17:01:37.960Z,3.07
2018-06-16T17:04:06.757Z,3.57
2018-06-16T17:06:35.631Z,3.30
2018-06-16T17:09:06.043Z,3.50
2018-06-16T17:11:34.502Z,3.40
2018-06-16T17:14:02.937Z,3.20
2018-06-16T17:16:31.531Z,3.40
2018-06-16T17:18:59.974Z,3.87
2018-06-16T17:21:28.447Z,4.00
2018-06-16T17:23:56.889Z,5.00
2018-06-16T17:26:25.467Z,4.07
2018-06-16T17:28:53.940Z,3.93
2018-06-16T17:31:22.422Z,3.40
2018-06-16T17:33:50.934Z,9.97
2018-06-16T17:36:19.463Z,4.03
2018-06-16T17:38:48.159Z,4.10
2018-06-16T17:41:16.749Z,3.60
2018-06-16T17:43:45.411Z,3.50
2018-06-16T17:46:13.888Z,3.83
2018-06-16T17:48:42.414Z,3.60
2018-06-16T17:51:10.901Z,3.40
2018-06-16T17:53:39.202Z,3.80
2018-06-16T17:56:07.845Z,6.60
2018-06-16T17:58:36.357Z,4.73
2018-06-16T18:01:05.003Z,4.30
2018-06-16T18:03:33.483Z,3.87
2018-06-16T18:06:02.021Z,4.03
2018-06-16T18:08:30.513Z,4.03
2018-06-16T18:10:59.039Z,4.07
2018-06-16T18:13:27.568Z,3.40
2018-06-16T18:15:56.035Z,4.03
2018-06-16T18:18:24.616Z,4.80
2018-06-16T18:20:53.137Z,5.10
2018-06-16T18:23:21.628Z,4.80
2018-06-16T18:25:50.150Z,4.77
2018-06-16T18:28:18.664Z,4.67
2018-06-16T18:30:47.174Z,4.40
2018-06-16T18:33:15.706Z,3.50
2018-06-16T18:35:44.318Z,3.53
2018-06-16T18:38:12.804Z,3.57
2018-06-16T18:40:41.322Z,3.63
2018-06-16T18:43:09.847Z,3.73
2018-06-16T18:45:38.312Z,4.03
2018-06-16T18:48:06.915Z,4.40
2018-06-16T18:50:35.424Z,3.80
2018-06-16T18:53:03.932Z,4.40
2018-06-16T18:55:32.490Z,4.70
2018-06-16T18:58:01.010Z,4.70
2018-06-16T19:00:29.568Z,4.30
2018-06-16T19:02:58.176Z,3.73
2018-06-16T19:05:26.808Z,3.60
2018-06-16T19:07:55.333Z,3.80
2018-06-16T19:10:23.804Z,4.20
2018-06-16T19:12:52.319Z,3.57
2018-06-16T19:15:20.816Z,4.33
2018-06-16T19:17:49.304Z,4.03
2018-06-16T19:20:17.787Z,4.00
2018-06-16T19:22:46.949Z,4.93
2018-06-16T19:25:15.427Z,4.33
2018-06-16T19:27:43.952Z,4.50
2018-06-16T19:30:12.477Z,4.60
2018-06-16T19:32:41.008Z,4.30
2018-06-16T19:35:09.541Z,4.57
2018-06-16T19:37:38.017Z,4.50
2018-06-16T19:40:06.684Z,4.50
2018-06-16T19:42:35.159Z,4.97
2018-06-16T19:45:03.700Z,4.80
2018-06-16T19:47:32.246Z,5.10
2018-06-16T19:50:00.839Z,4.90
2018-06-16T19:52:29.302Z,4.57
2018-06-16T19:54:57.835Z,4.93
2018-06-16T19:57:26.369Z,5.27
2018-06-16T19:59:54.936Z,5.20
2018-06-16T20:02:23.510Z,4.73
2018-06-16T20:04:52.039Z,4.93
2018-06-16T20:07:20.546Z,5.10
2018-06-16T20:09:49.058Z,5.20
2018-06-16T20:12:17.719Z,4.90
2018-06-16T20:14:46.182Z,4.70
2018-06-16T20:17:14.698Z,4.57
2018-06-16T20:19:43.163Z,4.80
2018-06-16T20:22:11.635Z,4.60
2018-06-16T20:24:40.171Z,5.03
2018-06-16T20:27:08.720Z,5.40
2018-06-16T20:29:37.301Z,5.40
2018-06-16T20:32:05.885Z,5.83
2018-06-16T20:34:34.426Z,4.60
2018-06-16T20:37:02.975Z,5.57
2018-06-16T20:39:31.543Z,5.43
2018-06-16T20:42:00.043Z,5.20
2018-06-16T20:44:28.631Z,4.97
2018-06-16T20:46:57.131Z,5.20
2018-06-16T20:49:25.627Z,5.50
2018-06-16T20:52:00.343Z,5.10
2018-06-16T20:54:28.991Z,6.23
2018-06-16T20:56:57.520Z,6.00
2018-06-16T20:59:26.051Z,5.37
2018-06-16T21:01:54.545Z,6.37
2018-06-16T21:04:23.050Z,5.97
2018-06-16T21:06:51.252Z,6.23
2018-06-16T21:09:19.697Z,6.17
2018-06-16T21:11:48.231Z,7.60
2018-06-16T21:14:16.730Z,6.40
2018-06-16T21:16:45.232Z,6.40
2018-06-16T21:19:13.772Z,6.07
2018-06-16T21:21:42.330Z,6.43
2018-06-16T21:24:10.812Z,6.77
2018-06-16T21:26:39.352Z,6.73
2018-06-16T21:29:07.870Z,6.27
2018-06-16T21:31:36.496Z,6.90
2018-06-16T21:34:05.091Z,6.70
2018-06-16T21:36:33.593Z,5.97
2018-06-16T21:39:02.447Z,7.33
2018-06-16T21:41:30.918Z,6.77
2018-06-16T21:43:59.465Z,7.43
2018-06-16T21:46:27.939Z,6.80
2018-06-16T21:48:56.469Z,7.20
2018-06-16T21:51:24.948Z,7.00
2018-06-16T21:53:53.562Z,7.07
2018-06-16T21:56:22.086Z,7.40
2018-06-16T21:58:50.601Z,7.37
2018-06-16T22:01:19.080Z,7.47
2018-06-16T22:03:47.608Z,7.87
2018-06-16T22:06:16.084Z,8.13
2018-06-16T22:08:44.583Z,8.10
2018-06-16T22:11:13.097Z,8.97
2018-06-16T22:13:41.571Z,8.30
2018-06-16T22:16:09.736Z,8.40
2018-06-16T22:18:38.233Z,8.33
2018-06-16T22:21:06.713Z,8.47
2018-06-16T22:23:35.147Z,8.30
2018-06-16T22:26:04.199Z,8.47
2018-06-16T22:28:32.695Z,8.13
2018-06-16T22:31:01.195Z,9.30
2018-06-16T22:33:29.696Z,9.20
2018-06-16T22:35:58.198Z,8.07
2018-06-16T22:38:26.716Z,8.67
2018-06-16T22:40:55.244Z,8.20
2018-06-16T22:43:23.737Z,9.70
2018-06-16T22:45:52.263Z,9.23
2018-06-16T22:48:20.912Z,9.70
2018-06-16T22:50:49.427Z,8.60
2018-06-16T22:53:18.101Z,9.43
2018-06-16T22:55:46.646Z,9.17
2018-06-16T22:58:15.155Z,9.33
2018-06-16T23:00:43.639Z,10.57
2018-06-16T23:03:12.185Z,9.67
2018-06-16T23:05:40.659Z,9.50
2018-06-16T23:08:09.177Z,8.87
2018-06-16T23:10:37.659Z,9.73
2018-06-16T23:13:06.203Z,9.70
2018-06-16T23:15:34.771Z,10.57
2018-06-16T23:18:03.311Z,9.70
2018-06-16T23:20:31.804Z,9.40
2018-06-16T23:23:00.331Z,11.37
2018-06-16T23:25:28.808Z,9.90
2018-06-16T23:27:57.396Z,8.40
2018-06-16T23:30:25.914Z,9.07
2018-06-16T23:32:54.431Z,9.83
2018-06-16T23:35:29.738Z,8.67
2018-06-16T23:37:58.581Z,9.10
2018-06-16T23:40:27.059Z,7.90
2018-06-16T23:42:55.599Z,8.27
2018-06-16T23:45:24.119Z,9.27
2018-06-16T23:47:52.608Z,7.90
2018-06-16T23:50:21.165Z,7.77
2018-06-16T23:52:49.637Z,7.73
2018-06-16T23:55:18.145Z,7.60
2018-06-16T23:57:47.992Z,7.33
